createdAt,value
2018-12-25T00:02:23.851Z,12.57
2018-12-25T00:05:13.398Z,12.80
2018-12-25T00:08:03.121Z,11.93
2018-12-25T00:10:52.811Z,12.63
2018-12-25T00:13:42.532Z,13.10
2018-12-25T00:16:32.533Z,12.93
2018-12-25T00:19:21.995Z,13.10
2018-12-25T00:22:11.698Z,13.63
2018-12-25T00:25:01.689Z,12.90
2018-12-25T00:27:51.451Z,13.73
2018-12-25T00:30:40.910Z,14.37
2018-12-25T00:33:30.758Z,13.50
2018-12-25T00:36:20.908Z,13.60
2018-12-25T00:39:10.649Z,13.07
2018-12-25T00:42:01.489Z,13.60
2018-12-25T00:44:51.193Z,14.00
2018-12-25T00:47:41.178Z,14.30
2018-12-25T00:50:30.997Z,14.17
2018-12-25T00:53:20.457Z,14.47
2018-12-25T00:56:10.516Z,14.53
2018-12-25T00:58:59.990Z,14.03
2018-12-25T01:01:50.476Z,14.43
2018-12-25T01:04:40.307Z,14.50
2018-12-25T01:07:30.248Z,13.87
2018-12-25T01:10:20.527Z,14.57
2018-12-25T01:13:09.979Z,14.87
2018-12-25T01:15:59.730Z,15.33
2018-12-25T01:18:49.503Z,14.10
2018-12-25T01:21:39.196Z,14.90
2018-12-25T01:24:28.934Z,15.20
2018-12-25T01:27:19.770Z,15.17
2018-12-25T01:30:09.443Z,14.67
2018-12-25T01:33:00.617Z,15.23
2018-12-25T01:35:50.616Z,15.43
2018-12-25T01:38:40.351Z,15.23
2018-12-25T01:41:29.852Z,15.87
2018-12-25T01:44:19.808Z,16.47
2018-12-25T01:47:09.328Z,15.47
2018-12-25T01:49:59.054Z,16.87
2018-12-25T01:52:48.537Z,16.53
2018-12-25T01:55:38.807Z,16.67
2018-12-25T01:58:28.262Z,16.50
2018-12-25T02:01:17.990Z,16.53
2018-12-25T02:04:08.152Z,16.43
2018-12-25T02:06:57.330Z,15.60
2018-12-25T02:09:46.816Z,16.40
2018-12-25T02:12:36.571Z,17.27
2018-12-25T02:15:26.375Z,16.80
2018-12-25T02:18:16.470Z,16.20
2018-12-25T02:21:06.252Z,16.43
2018-12-25T02:23:56.452Z,16.30
2018-12-25T02:26:46.419Z,17.07
2018-12-25T02:29:36.163Z,15.47
2018-12-25T02:32:25.914Z,15.87
2018-12-25T02:35:15.894Z,15.53
2018-12-25T02:38:05.358Z,15.87
2018-12-25T02:40:55.100Z,15.73
2018-12-25T02:43:44.643Z,17.13
2018-12-25T02:46:34.402Z,18.13
2018-12-25T02:49:24.145Z,17.07
2018-12-25T02:52:14.120Z,17.43
2018-12-25T02:55:04.157Z,17.63
2018-12-25T02:57:53.614Z,17.10
2018-12-25T03:00:43.348Z,17.20
2018-12-25T03:03:33.364Z,18.27
2018-12-25T03:06:23.406Z,17.67
2018-12-25T03:09:13.139Z,17.67
2018-12-25T03:12:02.948Z,17.60
2018-12-25T03:14:52.655Z,16.90
2018-12-25T03:17:42.139Z,17.80
2018-12-25T03:20:32.115Z,17.70
2018-12-25T03:23:21.874Z,16.37
2018-12-25T03:26:11.621Z,17.10
2018-12-25T03:29:02.146Z,17.47
2018-12-25T03:31:52.134Z,18.00
2018-12-25T03:34:41.827Z,16.93
2018-12-25T03:37:32.017Z,16.83
2018-12-25T03:40:21.576Z,17.60
2018-12-25T03:43:11.101Z,17.73
2018-12-25T03:46:00.566Z,18.47
2018-12-25T03:48:51.348Z,18.20
2018-12-25T03:51:40.910Z,18.27
2018-12-25T03:54:30.379Z,18.80
2018-12-25T03:57:20.072Z,19.10
2018-12-25T04:00:10.981Z,18.17
2018-12-25T04:03:00.519Z,19.07
2018-12-25T04:05:50.314Z,18.13
2018-12-25T04:08:40.461Z,18.23
2018-12-25T04:11:29.936Z,18.73
2018-12-25T04:14:20.752Z,18.20
2018-12-25T04:17:10.262Z,16.63
2018-12-25T04:20:00.386Z,17.33
2018-12-25T04:22:50.596Z,17.90
2018-12-25T04:25:40.336Z,18.20
2018-12-25T04:28:30.782Z,17.77
2018-12-25T04:31:20.787Z,17.33
2018-12-25T04:34:10.813Z,16.53
2018-12-25T04:37:00.596Z,16.67
2018-12-25T04:39:51.380Z,16.03
2018-12-25T04:42:41.575Z,15.63
2018-12-25T04:45:31.570Z,15.57
2018-12-25T04:48:21.513Z,14.77
2018-12-25T04:51:11.513Z,15.60
2018-12-25T04:54:00.953Z,15.00
2018-12-25T04:56:50.428Z,15.03
2018-12-25T04:59:39.959Z,16.40
2018-12-25T05:02:29.666Z,16.60
2018-12-25T05:05:20.125Z,15.97
2018-12-25T05:08:10.351Z,15.47
2018-12-25T05:11:00.702Z,14.90
2018-12-25T05:13:50.427Z,14.90
2018-12-25T05:16:40.249Z,15.70
2018-12-25T05:19:30.227Z,15.07
2018-12-25T05:22:19.938Z,16.87
2018-12-25T05:25:09.916Z,16.07
2018-12-25T05:27:59.988Z,16.13
2018-12-25T05:30:49.655Z,15.30
2018-12-25T05:33:39.727Z,15.07
2018-12-25T05:36:50.000Z,15.30
2018-12-25T05:39:40.204Z,15.30
2018-12-25T05:42:29.984Z,14.90
2018-12-25T05:45:19.718Z,15.13
2018-12-25T05:48:09.943Z,15.60
2018-12-25T05:51:00.168Z,15.17
2018-12-25T05:53:49.896Z,14.93
2018-12-25T05:56:40.240Z,16.10
2018-12-25T05:59:29.995Z,16.20
2018-12-25T06:02:19.791Z,16.03
2018-12-25T06:05:10.343Z,17.37
2018-12-25T06:08:00.621Z,16.47
2018-12-25T06:10:50.596Z,17.00
2018-12-25T06:13:40.343Z,16.53
2018-12-25T06:16:30.751Z,16.97
2018-12-25T06:19:20.667Z,16.93
2018-12-25T06:22:10.789Z,16.40
2018-12-25T06:25:00.749Z,16.70
2018-12-25T06:27:50.558Z,17.37
2018-12-25T06:30:40.761Z,16.83
2018-12-25T06:33:30.551Z,17.07
2018-12-25T06:36:20.346Z,17.50
2018-12-25T06:39:10.054Z,16.90
2018-12-25T06:41:59.808Z,17.00
2018-12-25T06:44:49.518Z,16.67
2018-12-25T06:47:39.263Z,16.77
2018-12-25T06:50:29.317Z,17.60
2018-12-25T06:53:19.037Z,17.60
2018-12-25T06:56:09.630Z,17.37
2018-12-25T06:58:59.103Z,17.27
2018-12-25T07:01:48.825Z,17.17
2018-12-25T07:04:38.830Z,16.73
2018-12-25T07:07:28.782Z,17.43
2018-12-25T07:10:18.769Z,16.80
2018-12-25T07:13:08.625Z,16.60
2018-12-25T07:15:58.092Z,17.13
2018-12-25T07:18:47.588Z,16.57
2018-12-25T07:21:37.848Z,18.20
2018-12-25T07:24:27.337Z,17.23
2018-12-25T07:27:17.285Z,16.93
2018-12-25T07:30:07.519Z,17.80
2018-12-25T07:32:57.724Z,16.63
2018-12-25T07:35:47.754Z,15.77
2018-12-25T07:38:37.478Z,16.30
2018-12-25T07:41:28.080Z,15.40
2018-12-25T07:44:17.576Z,15.37
2018-12-25T07:47:07.049Z,14.77
2018-12-25T07:49:57.059Z,15.67
2018-12-25T07:52:47.761Z,16.23
2018-12-25T07:55:37.481Z,16.40
2018-12-25T07:58:28.119Z,16.97
2018-12-25T08:01:17.592Z,16.07
2018-12-25T08:04:07.359Z,15.60
2018-12-25T08:06:56.842Z,15.47
2018-12-25T08:09:46.315Z,15.87
2018-12-25T08:12:36.055Z,14.80
2018-12-25T08:15:25.774Z,14.20
2018-12-25T08:18:15.887Z,14.97
2018-12-25T08:21:05.839Z,14.67
2018-12-25T08:23:55.841Z,15.10
2018-12-25T08:26:45.684Z,15.37
2018-12-25T08:29:35.410Z,15.03
2018-12-25T08:32:25.381Z,15.07
2018-12-25T08:35:15.288Z,15.77
2018-12-25T08:38:05.612Z,15.40
2018-12-25T08:40:55.543Z,15.37
2018-12-25T08:43:45.271Z,14.73
2018-12-25T08:46:35.213Z,15.77
2018-12-25T08:49:25.057Z,15.13
2018-12-25T08:52:14.787Z,14.70
2018-12-25T08:55:04.810Z,14.47
2018-12-25T08:57:55.420Z,15.13
2018-12-25T09:00:44.911Z,16.17
2018-12-25T09:03:35.547Z,14.57
2018-12-25T09:06:25.786Z,14.87
2018-12-25T09:09:15.778Z,15.37
2018-12-25T09:12:05.335Z,15.00
2018-12-25T09:14:56.726Z,16.17
2018-12-25T09:17:46.431Z,14.63
2018-12-25T09:20:35.973Z,15.43
2018-12-25T09:23:26.704Z,15.57
2018-12-25T09:26:17.004Z,14.60
2018-12-25T09:29:06.750Z,15.90
2018-12-25T09:31:57.227Z,15.07
2018-12-25T09:34:48.086Z,15.33
2018-12-25T09:37:38.501Z,15.73
2018-12-25T09:40:28.523Z,15.67
2018-12-25T09:43:19.106Z,15.57
2018-12-25T09:46:08.857Z,15.90
2018-12-25T09:48:59.200Z,15.57
2018-12-25T09:51:54.494Z,15.57
2018-12-25T09:54:41.080Z,15.20
2018-12-25T09:57:31.568Z,14.13
2018-12-25T10:00:21.431Z,15.30
2018-12-25T10:03:11.016Z,14.13
2018-12-25T10:06:01.128Z,15.50
2018-12-25T10:08:50.848Z,14.40
2018-12-25T10:11:44.509Z,15.57
2018-12-25T10:14:32.588Z,16.20
2018-12-25T10:17:22.128Z,15.57
2018-12-25T10:20:12.058Z,16.57
2018-12-25T10:23:01.874Z,16.20
2018-12-25T10:25:51.629Z,15.90
2018-12-25T10:28:41.740Z,15.43
2018-12-25T10:31:31.202Z,15.57
2018-12-25T10:34:21.099Z,15.77
2018-12-25T10:37:10.587Z,14.83
2018-12-25T10:40:00.332Z,15.20
2018-12-25T10:42:49.802Z,14.70
2018-12-25T10:45:40.084Z,15.03
2018-12-25T10:48:29.670Z,14.57
2018-12-25T10:51:19.199Z,14.80
2018-12-25T10:54:08.907Z,14.90
2018-12-25T10:56:58.783Z,15.30
2018-12-25T10:59:48.586Z,16.40
2018-12-25T11:02:38.341Z,16.83
2018-12-25T11:05:28.278Z,16.03
2018-12-25T11:08:17.988Z,15.70
2018-12-25T11:11:07.988Z,15.90
2018-12-25T11:13:57.699Z,16.67
2018-12-25T11:16:47.639Z,15.73
2018-12-25T11:19:37.618Z,16.83
2018-12-25T11:22:27.131Z,16.77
2018-12-25T11:25:16.594Z,17.43
2018-12-25T11:28:06.327Z,17.40
2018-12-25T11:30:56.295Z,18.07
2018-12-25T11:33:45.764Z,17.00
2018-12-25T11:36:47.818Z,16.07
2018-12-25T11:39:37.545Z,14.83
2018-12-25T11:42:27.262Z,15.47
2018-12-25T11:45:16.724Z,15.97
2018-12-25T11:48:06.188Z,16.10
2018-12-25T11:50:55.913Z,16.50
2018-12-25T11:53:46.404Z,15.90
2018-12-25T11:56:36.359Z,15.93
2018-12-25T11:59:26.306Z,15.53
2018-12-25T12:02:17.124Z,15.33
2018-12-25T12:05:07.492Z,15.43
2018-12-25T12:07:57.422Z,15.77
2018-12-25T12:10:47.200Z,16.13
2018-12-25T12:13:37.159Z,16.13
2018-12-25T12:16:26.885Z,16.60
2018-12-25T12:19:16.674Z,16.67
2018-12-25T12:22:06.661Z,15.97
2018-12-25T12:24:55.485Z,15.93
2018-12-25T12:27:44.979Z,15.17
2018-12-25T12:30:34.700Z,15.90
2018-12-25T12:33:24.171Z,15.40
2018-12-25T12:36:14.119Z,15.30
2018-12-25T12:42:33.069Z,15.67
2018-12-25T12:45:22.785Z,14.70
2018-12-25T12:48:12.531Z,15.13
2018-12-25T12:51:02.385Z,15.30
2018-12-25T12:53:52.414Z,14.97
2018-12-25T12:56:41.889Z,15.47
2018-12-25T12:59:31.724Z,15.07
2018-12-25T13:02:21.431Z,15.00
2018-12-25T13:05:11.645Z,14.47
2018-12-25T13:08:02.245Z,14.20
2018-12-25T13:10:51.987Z,21.57
2018-12-25T13:13:41.704Z,33.40
2018-12-25T13:16:50.388Z,20.23
2018-12-25T13:19:40.136Z,14.40
2018-12-25T13:22:29.604Z,14.77
2018-12-25T13:25:19.669Z,14.83
2018-12-25T13:28:09.994Z,15.27
2018-12-25T13:31:00.228Z,14.57
2018-12-25T13:33:49.963Z,15.00
2018-12-25T13:36:39.459Z,15.47
2018-12-25T13:39:50.111Z,14.60
2018-12-25T13:42:39.657Z,15.23
2018-12-25T13:45:29.908Z,14.13
2018-12-25T13:48:19.668Z,14.07
2018-12-25T13:51:09.385Z,13.47
2018-12-25T13:53:59.122Z,14.20
2018-12-25T13:56:48.644Z,13.67
2018-12-25T13:59:38.427Z,14.83
2018-12-25T14:02:28.477Z,15.00
2018-12-25T14:05:18.283Z,15.00
2018-12-25T14:08:08.089Z,13.73
2018-12-25T14:10:57.832Z,14.90
2018-12-25T14:13:47.630Z,14.97
2018-12-25T14:16:37.846Z,14.63
2018-12-25T14:19:27.861Z,14.93
2018-12-25T14:22:17.410Z,14.13
2018-12-25T14:25:07.648Z,14.17
2018-12-25T14:28:15.937Z,14.50
2018-12-25T14:31:05.718Z,14.63
2018-12-25T14:33:55.525Z,13.30
2018-12-25T14:40:17.575Z,13.40
2018-12-25T14:46:23.947Z,14.27
2018-12-25T14:49:14.005Z,15.37
2018-12-25T14:52:04.616Z,14.70
2018-12-25T14:54:56.230Z,15.57
2018-12-25T14:57:45.878Z,14.27
2018-12-25T15:00:36.797Z,14.50
2018-12-25T15:03:47.200Z,14.17
2018-12-25T15:06:37.382Z,14.40
2018-12-25T15:09:28.517Z,14.43
2018-12-25T15:12:18.638Z,14.77
2018-12-25T15:15:08.975Z,13.30
2018-12-25T15:21:10.372Z,14.07
2018-12-25T15:24:00.513Z,14.73
2018-12-25T15:26:50.710Z,14.70
2018-12-25T15:29:41.189Z,14.47
2018-12-25T15:32:30.792Z,14.30
2018-12-25T15:35:20.482Z,15.00
2018-12-25T15:38:10.774Z,16.13
2018-12-25T15:41:00.586Z,15.57
2018-12-25T15:43:50.360Z,15.57
2018-12-25T15:46:40.547Z,15.47
2018-12-25T15:49:30.294Z,15.60
2018-12-25T15:52:19.959Z,16.47
2018-12-25T15:55:10.292Z,15.70
2018-12-25T15:58:00.458Z,16.10
2018-12-25T16:00:50.933Z,16.23
2018-12-25T16:03:40.986Z,16.20
2018-12-25T16:06:34.388Z,17.53
2018-12-25T16:09:22.695Z,17.40
2018-12-25T16:12:12.982Z,17.50
2018-12-25T16:15:02.739Z,18.87
2018-12-25T16:17:52.561Z,18.73
2018-12-25T16:20:42.040Z,20.67
2018-12-25T16:23:32.544Z,21.67
2018-12-25T16:26:22.808Z,21.13
2018-12-25T16:29:12.783Z,20.47
2018-12-25T16:32:22.059Z,20.77
2018-12-25T16:35:11.775Z,20.07
2018-12-25T16:38:01.989Z,19.17
2018-12-25T16:40:51.715Z,19.87
2018-12-25T16:43:41.165Z,20.33
2018-12-25T16:46:30.735Z,21.47
2018-12-25T16:49:20.217Z,21.50
2018-12-25T16:52:09.765Z,24.30
2018-12-25T16:54:59.509Z,22.00
2018-12-25T16:57:49.251Z,20.80
2018-12-25T17:00:39.459Z,23.27
2018-12-25T17:03:29.661Z,25.90
2018-12-25T17:06:20.433Z,23.00
2018-12-25T17:09:29.587Z,21.30
2018-12-25T17:12:19.559Z,21.83
2018-12-25T17:15:09.336Z,21.53
2018-12-25T17:17:59.036Z,21.57
2018-12-25T17:20:48.819Z,23.10
2018-12-25T17:24:02.141Z,25.43
2018-12-25T17:26:49.041Z,23.87
2018-12-25T17:29:39.308Z,22.90
2018-12-25T17:32:29.035Z,24.57
2018-12-25T17:35:38.405Z,28.40
2018-12-25T17:38:28.880Z,22.83
2018-12-25T17:41:18.363Z,27.40
2018-12-25T17:44:27.290Z,28.90
2018-12-25T17:47:17.058Z,32.07
2018-12-25T17:50:06.980Z,41.43
2018-12-25T17:52:56.714Z,43.77
2018-12-25T17:55:46.769Z,42.13
2018-12-25T17:58:55.720Z,39.97
2018-12-25T18:01:45.481Z,32.27
2018-12-25T18:04:54.144Z,30.70
2018-12-25T18:07:44.248Z,30.13
2018-12-25T18:10:34.308Z,29.97
2018-12-25T18:13:24.328Z,31.77
2018-12-25T18:16:13.809Z,31.67
2018-12-25T18:19:03.837Z,35.20
2018-12-25T18:21:53.819Z,35.90
2018-12-25T18:25:02.563Z,38.60
2018-12-25T18:27:52.547Z,42.80
2018-12-25T18:30:42.563Z,35.07
2018-12-25T18:33:32.328Z,28.90
2018-12-25T18:36:22.402Z,25.37
2018-12-25T18:39:12.228Z,27.57
2018-12-25T18:42:02.975Z,27.70
2018-12-25T18:44:52.788Z,31.07
2018-12-25T18:48:01.746Z,39.00
2018-12-25T18:50:51.479Z,43.20
2018-12-25T18:54:01.232Z,46.87
2018-12-25T18:56:51.319Z,33.30
2018-12-25T18:59:40.813Z,60.27
2018-12-25T19:02:49.765Z,47.53
2018-12-25T19:05:39.215Z,49.87
2018-12-25T19:08:47.910Z,48.17
2018-12-25T19:11:37.669Z,47.83
2018-12-25T19:14:50.074Z,45.10
2018-12-25T19:17:39.810Z,41.03
2018-12-25T19:20:29.630Z,37.00
2018-12-25T19:23:19.920Z,30.17
2018-12-25T19:29:58.000Z,32.33
2018-12-25T19:32:59.832Z,30.13
2018-12-25T19:35:49.843Z,32.07
2018-12-25T19:38:39.855Z,29.17
2018-12-25T19:41:29.761Z,28.37
2018-12-25T19:44:19.408Z,27.53
2018-12-25T19:47:09.487Z,26.73
2018-12-25T19:50:18.277Z,27.87
2018-12-25T19:53:09.113Z,28.63
2018-12-25T19:55:58.982Z,26.47
2018-12-25T19:59:07.771Z,23.97
2018-12-25T20:02:16.782Z,24.53
2018-12-25T20:05:44.592Z,25.20
2018-12-25T20:09:12.406Z,25.87
2018-12-25T20:12:37.617Z,23.70
2018-12-25T20:16:05.400Z,27.63
2018-12-25T20:19:34.169Z,24.47
2018-12-25T20:22:48.146Z,23.77
2018-12-25T20:26:03.618Z,24.97
2018-12-25T20:29:31.451Z,23.90
2018-12-25T20:32:32.497Z,24.83
2018-12-25T20:36:00.344Z,25.20
2018-12-25T20:39:28.161Z,25.63
2018-12-25T20:46:52.933Z,26.53
2018-12-25T20:50:20.739Z,26.30
2018-12-25T20:53:48.579Z,26.30
2018-12-25T20:57:16.395Z,24.47
2018-12-25T21:00:44.247Z,24.23
2018-12-25T21:04:12.074Z,25.63
2018-12-25T21:07:40.164Z,25.27
2018-12-25T21:11:07.986Z,23.73
2018-12-25T21:14:35.799Z,25.17
2018-12-25T21:18:05.853Z,25.07
2018-12-25T21:21:41.578Z,24.37
2018-12-25T21:25:10.125Z,23.77
2018-12-25T21:28:18.143Z,23.13
2018-12-25T21:34:25.922Z,24.73
2018-12-25T21:37:18.462Z,23.40
2018-12-25T21:40:09.007Z,23.70
2018-12-25T21:42:59.586Z,26.60
2018-12-25T21:45:49.703Z,25.60
2018-12-25T21:48:39.352Z,25.47
2018-12-25T21:51:31.083Z,25.70
2018-12-25T21:54:39.851Z,26.07
2018-12-25T21:57:50.013Z,25.53
2018-12-25T22:00:39.957Z,26.20
2018-12-25T22:03:49.395Z,28.80
2018-12-25T22:06:58.085Z,26.37
2018-12-25T22:10:07.746Z,26.60
2018-12-25T22:13:16.792Z,27.33
2018-12-25T22:16:07.069Z,29.00
2018-12-25T22:18:57.229Z,33.47
2018-12-25T22:22:07.185Z,33.40
2018-12-25T22:24:58.191Z,36.87
2018-12-25T22:28:06.875Z,42.83
2018-12-25T22:30:57.695Z,37.47
2018-12-25T22:34:07.468Z,42.07
2018-12-25T22:37:00.366Z,39.57
2018-12-25T22:39:50.399Z,39.10
2018-12-25T22:42:40.451Z,35.80
2018-12-25T22:45:30.616Z,34.27
2018-12-25T22:48:38.282Z,33.20
2018-12-25T22:51:47.045Z,31.03
2018-12-25T22:54:36.677Z,28.83
2018-12-25T22:57:26.782Z,29.50
2018-12-25T23:00:35.619Z,27.63
2018-12-25T23:03:27.514Z,27.80
2018-12-25T23:06:17.232Z,26.60
2018-12-25T23:09:07.689Z,27.33
2018-12-25T23:12:16.744Z,25.40
2018-12-25T23:15:15.549Z,26.47
2018-12-25T23:18:05.489Z,27.70
2018-12-25T23:20:55.733Z,26.67
2018-12-25T23:23:57.838Z,26.70
2018-12-25T23:26:37.364Z,26.37
2018-12-25T23:29:27.251Z,25.27
2018-12-25T23:32:16.890Z,26.00
2018-12-25T23:35:06.773Z,26.03
2018-12-25T23:37:56.522Z,27.13
2018-12-25T23:40:46.138Z,26.60
2018-12-25T23:43:35.968Z,27.33
2018-12-25T23:46:25.786Z,27.50
2018-12-25T23:49:15.756Z,27.53
2018-12-25T23:52:05.296Z,26.90
2018-12-25T23:54:55.160Z,27.77
2018-12-25T23:57:45.220Z,28.00
